Time;durP1;ratioP1;P1;durP2;ratioP2;P2;SDS_P1;SDS_P2;PMS_P1;PMS_P2;Temp;Humidity;BMP_temperature;BMP_pressure;BME280_temperature;BME280_humidity;BME280_pressure;Samples;Min_cycle;Max_cycle;Signal;HPM_P1;HPM_P2
2021/03/14 00:01:58;;;;;;;3.37;2.20;;;;;;;;;;5009667;28;20202;-49
2021/03/14 00:04:23;;;;;;;5.37;2.20;;;;;;;;;;5007278;28;20262;-48
2021/03/14 00:06:48;;;;;;;3.33;2.30;;;;;;;;;;5010900;28;20242;-48
2021/03/14 00:09:13;;;;;;;4.07;2.50;;;;;;;;;;5016832;28;20194;-50
2021/03/14 00:11:39;;;;;;;4.80;2.43;;;;;;;;;;5008087;28;20260;-49
2021/03/14 00:14:04;;;;;;;4.17;2.57;;;;;;;;;;5006930;28;20231;-49
2021/03/14 00:16:29;;;;;;;5.97;2.53;;;;;;;;;;5000008;28;20579;-49
2021/03/14 00:18:55;;;;;;;5.47;2.30;;;;;;;;;;5002797;28;20184;-48
2021/03/14 00:21:22;;;;;;;4.80;2.30;;;;;;;;;;5010311;28;20583;-47
2021/03/14 00:23:47;;;;;;;4.03;2.37;;;;;;;;;;5009753;28;20187;-48
2021/03/14 00:26:13;;;;;;;3.97;1.90;;;;;;;;;;4997086;28;20204;-48
2021/03/14 00:28:38;;;;;;;7.50;2.30;;;;;;;;;;4992363;28;20702;-48
2021/03/14 00:31:03;;;;;;;9.57;2.20;;;;;;;;;;5009200;28;20195;-49
2021/03/14 00:33:29;;;;;;;6.30;2.37;;;;;;;;;;5009464;28;20786;-47
2021/03/14 00:35:54;;;;;;;5.97;2.67;;;;;;;;;;5002834;28;20215;-49
2021/03/14 00:38:19;;;;;;;5.03;1.93;;;;;;;;;;4992463;28;20199;-48
2021/03/14 00:40:45;;;;;;;4.17;2.20;;;;;;;;;;5009110;28;20261;-49
2021/03/14 00:43:11;;;;;;;6.47;2.40;;;;;;;;;;5010275;28;20214;-48
2021/03/14 00:45:37;;;;;;;3.43;1.77;;;;;;;;;;5003662;28;20211;-49
2021/03/14 00:48:05;;;;;;;3.73;2.00;;;;;;;;;;5006317;28;20172;-48
2021/03/14 00:50:35;;;;;;;6.40;2.27;;;;;;;;;;4987763;28;20186;-48
2021/03/14 00:53:03;;;;;;;6.60;1.90;;;;;;;;;;5003973;28;20794;-48
2021/03/14 00:55:29;;;;;;;4.37;1.70;;;;;;;;;;5003968;28;20221;-49
2021/03/14 00:57:54;;;;;;;9.20;2.20;;;;;;;;;;5004993;28;20207;-47
2021/03/14 01:00:20;;;;;;;3.73;1.77;;;;;;;;;;5002785;28;20195;-48
2021/03/14 01:02:46;;;;;;;3.47;2.47;;;;;;;;;;4995551;28;20199;-48
2021/03/14 01:05:12;;;;;;;5.23;2.17;;;;;;;;;;5012333;28;20318;-48
2021/03/14 01:07:37;;;;;;;7.07;2.40;;;;;;;;;;5011775;28;20183;-49
2021/03/14 01:10:03;;;;;;;6.13;2.33;;;;;;;;;;5000134;28;20660;-48
2021/03/14 01:12:29;;;;;;;5.17;2.37;;;;;;;;;;4999357;28;20643;-48
2021/03/14 01:14:54;;;;;;;2.73;1.80;;;;;;;;;;5005442;28;20211;-50
2021/03/14 01:17:20;;;;;;;5.20;2.00;;;;;;;;;;5014629;28;20694;-49
2021/03/14 01:19:45;;;;;;;5.37;2.00;;;;;;;;;;5006658;28;20206;-50
2021/03/14 01:22:10;;;;;;;6.47;2.03;;;;;;;;;;5000344;28;20188;-49
2021/03/14 01:24:35;;;;;;;5.30;1.70;;;;;;;;;;4999305;28;20223;-48
2021/03/14 01:27:01;;;;;;;4.40;1.77;;;;;;;;;;4998491;28;20585;-49
2021/03/14 01:29:26;;;;;;;7.10;2.30;;;;;;;;;;5003906;28;20211;-49
2021/03/14 01:31:51;;;;;;;5.37;1.73;;;;;;;;;;5001363;28;20329;-48
2021/03/14 01:34:16;;;;;;;4.67;2.07;;;;;;;;;;5009903;28;22069;-48
2021/03/14 01:36:42;;;;;;;6.37;1.83;;;;;;;;;;5007253;28;20707;-49
2021/03/14 01:39:07;;;;;;;4.63;2.27;;;;;;;;;;4989965;28;20187;-48
2021/03/14 01:41:32;;;;;;;3.33;1.70;;;;;;;;;;5002752;28;20202;-46
2021/03/14 01:43:58;;;;;;;4.73;1.77;;;;;;;;;;5004185;28;20245;-48
2021/03/14 01:46:24;;;;;;;3.23;1.77;;;;;;;;;;4982769;28;20572;-49
2021/03/14 01:48:50;;;;;;;4.27;1.83;;;;;;;;;;4999055;28;20196;-48
2021/03/14 01:51:15;;;;;;;8.63;2.13;;;;;;;;;;4998232;28;20192;-49
2021/03/14 01:53:41;;;;;;;8.30;2.13;;;;;;;;;;5004169;28;20191;-48
2021/03/14 01:56:06;;;;;;;4.10;2.07;;;;;;;;;;5010101;28;20199;-48
2021/03/14 01:58:34;;;;;;;7.90;2.20;;;;;;;;;;5001461;28;20207;-48
2021/03/14 02:00:59;;;;;;;3.47;2.17;;;;;;;;;;5001570;28;20191;-48
2021/03/14 02:03:25;;;;;;;3.03;1.73;;;;;;;;;;5011249;28;20195;-49
2021/03/14 02:05:51;;;;;;;8.23;2.67;;;;;;;;;;5013863;28;20207;-48
2021/03/14 02:08:17;;;;;;;5.67;2.40;;;;;;;;;;4992248;28;20234;-49
2021/03/14 02:10:47;;;;;;;7.00;2.63;;;;;;;;;;5004416;28;20552;-48
2021/03/14 02:13:18;;;;;;;5.37;2.50;;;;;;;;;;5003195;28;20188;-48
2021/03/14 02:15:46;;;;;;;5.60;2.30;;;;;;;;;;5013576;28;20302;-48
2021/03/14 02:18:13;;;;;;;4.60;2.13;;;;;;;;;;5005240;28;20200;-49
2021/03/14 02:20:39;;;;;;;7.43;2.40;;;;;;;;;;5003595;28;20745;-48
2021/03/14 02:23:14;;;;;;;4.83;2.20;;;;;;;;;;4997256;28;20685;-48
2021/03/14 02:25:49;;;;;;;8.20;2.70;;;;;;;;;;5003332;28;20268;-48
2021/03/14 02:28:16;;;;;;;6.07;2.40;;;;;;;;;;4986135;28;20186;-49
2021/03/14 02:30:43;;;;;;;6.20;2.13;;;;;;;;;;5004477;28;20198;-47
2021/03/14 02:33:12;;;;;;;5.93;2.43;;;;;;;;;;5004066;28;20195;-47
2021/03/14 02:35:38;;;;;;;4.27;2.40;;;;;;;;;;5009996;28;20208;-49
2021/03/14 02:38:05;;;;;;;4.90;2.60;;;;;;;;;;5011143;28;20312;-49
2021/03/14 02:40:31;;;;;;;5.07;2.20;;;;;;;;;;5006972;28;20647;-49
2021/03/14 02:42:57;;;;;;;4.80;2.10;;;;;;;;;;5002473;28;20282;-48
2021/03/14 02:45:25;;;;;;;6.43;2.57;;;;;;;;;;5011579;28;20206;-48
2021/03/14 02:47:51;;;;;;;3.23;1.90;;;;;;;;;;5016810;28;20188;-47
2021/03/14 02:50:18;;;;;;;2.70;2.20;;;;;;;;;;5012912;28;20277;-48
2021/03/14 02:52:45;;;;;;;5.43;2.00;;;;;;;;;;5006306;28;20195;-48
2021/03/14 02:55:13;;;;;;;5.27;2.17;;;;;;;;;;4997774;28;20210;-48
2021/03/14 02:57:39;;;;;;;3.67;2.70;;;;;;;;;;5007703;28;20212;-48
2021/03/14 03:00:07;;;;;;;6.47;2.20;;;;;;;;;;5007530;28;20593;-49
2021/03/14 03:02:33;;;;;;;7.17;2.73;;;;;;;;;;4973977;28;20196;-48
2021/03/14 03:04:59;;;;;;;6.70;2.97;;;;;;;;;;4993028;28;20215;-48
2021/03/14 03:07:24;;;;;;;5.87;2.43;;;;;;;;;;4988910;28;20873;-48
2021/03/14 03:09:51;;;;;;;3.90;2.53;;;;;;;;;;4989827;28;20183;-49
2021/03/14 03:12:22;;;;;;;6.63;2.67;;;;;;;;;;4991438;28;20195;-47
2021/03/14 03:14:49;;;;;;;7.43;3.20;;;;;;;;;;5006887;28;20215;-48
2021/03/14 03:17:15;;;;;;;7.93;3.60;;;;;;;;;;5000181;28;20219;-48
2021/03/14 03:19:42;;;;;;;8.63;3.87;;;;;;;;;;5012394;28;20179;-49
2021/03/14 03:22:08;;;;;;;7.70;3.60;;;;;;;;;;5006828;28;20188;-49
2021/03/14 03:24:33;;;;;;;5.90;3.13;;;;;;;;;;5007745;28;20207;-49
2021/03/14 03:26:59;;;;;;;8.17;3.30;;;;;;;;;;4999532;28;20556;-48
2021/03/14 03:29:25;;;;;;;6.87;3.60;;;;;;;;;;4999824;28;20176;-47
2021/03/14 03:31:50;;;;;;;7.83;2.87;;;;;;;;;;5006615;28;20202;-48
2021/03/14 03:34:15;;;;;;;8.00;3.03;;;;;;;;;;5012439;28;20215;-48
2021/03/14 03:36:42;;;;;;;9.13;3.67;;;;;;;;;;5003266;28;20598;-49
2021/03/14 03:39:10;;;;;;;4.67;2.53;;;;;;;;;;5001954;28;20271;-49
2021/03/14 03:41:51;;;;;;;6.47;3.17;;;;;;;;;;5009352;28;20186;-48
2021/03/14 03:44:23;;;;;;;4.67;3.10;;;;;;;;;;5010149;28;20707;-48
2021/03/14 03:46:55;;;;;;;9.13;3.53;;;;;;;;;;5006932;28;20191;-47
2021/03/14 03:49:24;;;;;;;5.47;3.03;;;;;;;;;;5001827;28;20180;-48
2021/03/14 03:51:51;;;;;;;7.43;3.03;;;;;;;;;;4996594;28;20194;-48
2021/03/14 03:54:17;;;;;;;8.23;3.37;;;;;;;;;;5006050;28;20242;-48
2021/03/14 03:56:43;;;;;;;8.60;3.87;;;;;;;;;;4991105;28;20198;-49
2021/03/14 03:59:08;;;;;;;10.30;3.83;;;;;;;;;;4989628;28;22077;-49
2021/03/14 04:01:35;;;;;;;9.17;3.67;;;;;;;;;;5016264;28;20191;-48
2021/03/14 04:04:02;;;;;;;7.60;3.47;;;;;;;;;;5004303;28;20196;-48
2021/03/14 04:06:29;;;;;;;10.63;3.93;;;;;;;;;;5004251;28;20191;-49
2021/03/14 04:08:54;;;;;;;7.67;4.13;;;;;;;;;;4990008;28;20192;-48
2021/03/14 04:11:21;;;;;;;6.80;3.33;;;;;;;;;;5009226;28;20200;-48
2021/03/14 04:13:47;;;;;;;14.50;3.87;;;;;;;;;;4990150;28;20217;-48
2021/03/14 04:16:14;;;;;;;6.47;2.67;;;;;;;;;;5004365;28;20211;-48
2021/03/14 04:18:40;;;;;;;9.07;3.57;;;;;;;;;;5012023;28;20695;-49
2021/03/14 04:21:09;;;;;;;9.40;3.37;;;;;;;;;;5017429;28;20277;-47
2021/03/14 04:23:38;;;;;;;9.13;3.40;;;;;;;;;;4991063;28;20282;-48
2021/03/14 04:26:03;;;;;;;11.97;3.77;;;;;;;;;;4984932;28;20593;-48
2021/03/14 04:28:31;;;;;;;4.57;2.53;;;;;;;;;;5010375;28;20225;-48
2021/03/14 04:30:58;;;;;;;2.30;1.47;;;;;;;;;;5000570;28;20188;-48
2021/03/14 04:33:24;;;;;;;1.90;1.60;;;;;;;;;;5004498;28;20231;-47
2021/03/14 04:35:51;;;;;;;3.07;1.40;;;;;;;;;;4996269;28;20242;-48
2021/03/14 04:38:18;;;;;;;2.80;1.40;;;;;;;;;;5003147;28;20242;-49
2021/03/14 04:40:44;;;;;;;2.13;1.30;;;;;;;;;;5003081;28;20206;-50
2021/03/14 04:43:09;;;;;;;2.63;1.47;;;;;;;;;;5005332;28;20195;-48
2021/03/14 04:45:35;;;;;;;1.83;1.13;;;;;;;;;;4996671;28;20204;-48
2021/03/14 04:48:03;;;;;;;2.83;1.20;;;;;;;;;;4998171;28;20180;-48
2021/03/14 04:50:29;;;;;;;2.53;1.77;;;;;;;;;;5008489;28;20180;-48
2021/03/14 04:52:57;;;;;;;1.80;1.37;;;;;;;;;;5009200;28;20289;-48
2021/03/14 04:55:24;;;;;;;1.63;1.00;;;;;;;;;;5007649;28;20207;-48
2021/03/14 04:57:51;;;;;;;2.93;1.50;;;;;;;;;;4990674;28;20586;-49
2021/03/14 05:00:18;;;;;;;3.60;1.70;;;;;;;;;;5016977;28;20710;-48
2021/03/14 05:02:46;;;;;;;1.90;1.50;;;;;;;;;;5005959;28;20187;-50
2021/03/14 05:05:13;;;;;;;2.50;1.77;;;;;;;;;;5003977;28;20222;-48
2021/03/14 05:07:41;;;;;;;2.57;1.70;;;;;;;;;;4988633;28;20211;-48
2021/03/14 05:10:36;;;;;;;3.83;1.63;;;;;;;;;;5012972;28;20191;-50
2021/03/14 05:13:03;;;;;;;3.63;1.87;;;;;;;;;;5004109;28;20203;-48
2021/03/14 05:15:29;;;;;;;3.93;1.80;;;;;;;;;;5008108;28;20214;-49
2021/03/14 05:17:55;;;;;;;3.53;1.50;;;;;;;;;;4989956;28;20302;-48
2021/03/14 05:20:21;;;;;;;2.53;1.80;;;;;;;;;;5004197;28;20925;-48
2021/03/14 05:22:48;;;;;;;5.13;1.80;;;;;;;;;;5000056;28;20211;-50
2021/03/14 05:25:16;;;;;;;4.73;1.70;;;;;;;;;;4986522;28;20234;-48
2021/03/14 05:27:49;;;;;;;6.77;1.93;;;;;;;;;;4985552;28;20187;-49
2021/03/14 05:30:25;;;;;;;4.33;1.80;;;;;;;;;;5004694;28;20195;-49
2021/03/14 05:32:51;;;;;;;3.77;2.00;;;;;;;;;;5009271;28;20880;-48
2021/03/14 05:35:22;;;;;;;3.70;2.20;;;;;;;;;;5001122;28;20207;-48
2021/03/14 05:37:47;;;;;;;2.83;2.00;;;;;;;;;;5003600;28;20207;-48
2021/03/14 05:40:14;;;;;;;3.00;1.97;;;;;;;;;;5015606;28;20557;-48
2021/03/14 05:42:40;;;;;;;3.67;1.60;;;;;;;;;;5003467;28;20275;-49
2021/03/14 05:45:08;;;;;;;3.60;2.00;;;;;;;;;;4998594;28;20567;-47
2021/03/14 05:47:34;;;;;;;3.73;2.10;;;;;;;;;;4998248;28;20246;-49
2021/03/14 05:49:59;;;;;;;5.30;2.60;;;;;;;;;;5011299;28;20215;-49
2021/03/14 05:52:25;;;;;;;5.07;2.50;;;;;;;;;;5013963;28;20261;-48
2021/03/14 05:54:51;;;;;;;4.03;2.47;;;;;;;;;;5007874;28;20587;-48
2021/03/14 05:57:18;;;;;;;6.57;2.80;;;;;;;;;;5004939;28;20261;-48
2021/03/14 05:59:50;;;;;;;5.53;2.60;;;;;;;;;;5011163;28;20195;-48
2021/03/14 06:02:20;;;;;;;3.83;2.30;;;;;;;;;;4988916;28;20687;-48
2021/03/14 06:04:46;;;;;;;4.17;2.60;;;;;;;;;;4984902;28;20282;-47
2021/03/14 06:07:12;;;;;;;4.77;3.80;;;;;;;;;;4993965;28;20186;-48
2021/03/14 06:09:38;;;;;;;7.73;5.63;;;;;;;;;;4985403;28;20195;-48
2021/03/14 06:12:08;;;;;;;9.30;6.73;;;;;;;;;;4998315;28;20238;-47
2021/03/14 06:14:34;;;;;;;8.57;6.00;;;;;;;;;;5013420;28;20297;-49
2021/03/14 06:16:59;;;;;;;6.67;3.33;;;;;;;;;;5006516;28;20270;-48
2021/03/14 06:19:25;;;;;;;3.47;1.93;;;;;;;;;;5001215;28;20191;-48
2021/03/14 06:21:50;;;;;;;4.90;2.27;;;;;;;;;;5006130;28;20195;-48
2021/03/14 06:24:15;;;;;;;7.93;3.23;;;;;;;;;;4988466;28;20218;-49
2021/03/14 06:26:48;;;;;;;5.57;3.93;;;;;;;;;;5008637;28;20233;-49
2021/03/14 06:29:16;;;;;;;6.50;3.47;;;;;;;;;;5010068;28;20187;-48
2021/03/14 06:31:45;;;;;;;5.40;3.60;;;;;;;;;;5003054;28;20531;-48
2021/03/14 06:34:40;;;;;;;6.67;3.20;;;;;;;;;;5013330;28;20671;-47
2021/03/14 06:37:14;;;;;;;3.73;2.70;;;;;;;;;;5009935;28;20276;-50
2021/03/14 06:39:45;;;;;;;3.90;1.90;;;;;;;;;;4993761;28;20275;-48
2021/03/14 06:42:31;;;;;;;2.50;1.97;;;;;;;;;;5005183;28;20191;-49
2021/03/14 06:45:12;;;;;;;4.37;2.33;;;;;;;;;;5000457;28;20215;-48
2021/03/14 06:47:46;;;;;;;5.77;2.50;;;;;;;;;;5008570;28;20198;-48
2021/03/14 06:50:29;;;;;;;3.70;2.90;;;;;;;;;;5007695;28;20214;-48
2021/03/14 06:53:18;;;;;;;5.77;2.87;;;;;;;;;;5012997;28;20191;-47
2021/03/14 06:55:50;;;;;;;3.97;2.60;;;;;;;;;;5009522;28;20253;-49
2021/03/14 06:58:33;;;;;;;4.73;3.30;;;;;;;;;;5010606;28;20266;-49
2021/03/14 07:01:15;;;;;;;5.73;3.00;;;;;;;;;;4990064;28;20270;-48
2021/03/14 07:03:43;;;;;;;4.97;2.53;;;;;;;;;;5014909;28;20685;-49
2021/03/14 07:06:19;;;;;;;9.50;2.90;;;;;;;;;;5010267;28;20222;-47
2021/03/14 07:08:50;;;;;;;4.97;3.07;;;;;;;;;;5012577;28;20179;-48
2021/03/14 07:11:42;;;;;;;7.37;3.47;;;;;;;;;;5008856;28;20202;-49
2021/03/14 07:14:15;;;;;;;8.20;3.90;;;;;;;;;;5009357;28;20188;-48
2021/03/14 07:16:43;;;;;;;10.50;3.83;;;;;;;;;;5006757;28;20958;-47
2021/03/14 07:19:14;;;;;;;7.10;3.50;;;;;;;;;;5012802;28;20203;-49
2021/03/14 07:21:39;;;;;;;8.77;4.30;;;;;;;;;;5011793;28;20274;-48
2021/03/14 07:24:10;;;;;;;11.73;5.17;;;;;;;;;;5009068;28;20333;-48
2021/03/14 07:26:45;;;;;;;8.17;4.37;;;;;;;;;;5005683;28;20616;-48
2021/03/14 07:29:11;;;;;;;9.20;5.13;;;;;;;;;;5006780;28;20647;-47
2021/03/14 07:31:36;;;;;;;10.83;5.70;;;;;;;;;;5013781;28;20187;-47
2021/03/14 07:34:03;;;;;;;11.50;5.17;;;;;;;;;;5005608;28;20266;-48
2021/03/14 07:36:28;;;;;;;9.47;5.47;;;;;;;;;;5015811;28;20265;-48
2021/03/14 07:38:55;;;;;;;11.93;4.17;;;;;;;;;;5004342;28;20714;-49
2021/03/14 07:41:20;;;;;;;8.53;3.80;;;;;;;;;;5008451;28;20223;-49
2021/03/14 07:43:45;;;;;;;10.13;3.97;;;;;;;;;;5005106;28;20223;-48
2021/03/14 07:46:12;;;;;;;6.93;3.90;;;;;;;;;;5015705;28;20220;-47
2021/03/14 07:48:41;;;;;;;9.07;2.57;;;;;;;;;;5013632;28;20569;-48
2021/03/14 07:51:07;;;;;;;14.20;5.73;;;;;;;;;;4984966;28;20257;-48
2021/03/14 07:53:33;;;;;;;13.13;4.43;;;;;;;;;;5004253;28;20273;-49
2021/03/14 07:56:00;;;;;;;10.27;4.67;;;;;;;;;;5015358;28;20286;-48
2021/03/14 07:58:26;;;;;;;11.07;4.53;;;;;;;;;;5006159;28;20203;-47
2021/03/14 08:00:51;;;;;;;9.73;5.20;;;;;;;;;;5010480;28;20186;-48
2021/03/14 08:03:16;;;;;;;10.97;5.10;;;;;;;;;;5007707;28;20196;-48
2021/03/14 08:05:47;;;;;;;11.27;4.50;;;;;;;;;;4989016;28;20214;-47
2021/03/14 08:08:35;;;;;;;11.53;4.23;;;;;;;;;;4991673;28;20190;-47
2021/03/14 08:11:01;;;;;;;7.93;3.00;;;;;;;;;;5007639;28;20183;-48
2021/03/14 08:13:29;;;;;;;8.23;3.50;;;;;;;;;;5008432;28;20191;-48
2021/03/14 08:16:05;;;;;;;11.53;3.17;;;;;;;;;;5005507;28;20302;-47
2021/03/14 08:19:10;;;;;;;9.67;3.47;;;;;;;;;;4998391;28;20250;-49
2021/03/14 08:21:37;;;;;;;10.53;3.63;;;;;;;;;;4992112;28;20199;-47
2021/03/14 08:24:03;;;;;;;12.40;3.63;;;;;;;;;;4990031;28;20195;-48
2021/03/14 08:26:33;;;;;;;8.97;3.80;;;;;;;;;;5004249;28;20184;-49
2021/03/14 08:28:58;;;;;;;9.47;4.17;;;;;;;;;;5004906;28;20233;-48
2021/03/14 08:31:46;;;;;;;8.57;4.20;;;;;;;;;;4980743;28;20226;-47
2021/03/14 08:34:45;;;;;;;9.50;4.30;;;;;;;;;;5003325;28;20650;-48
2021/03/14 08:37:22;;;;;;;12.70;4.17;;;;;;;;;;4972769;28;20236;-49
2021/03/14 08:39:47;;;;;;;11.37;4.00;;;;;;;;;;4994704;28;20219;-48
2021/03/14 08:42:13;;;;;;;10.33;4.27;;;;;;;;;;4988274;28;20218;-47
2021/03/14 08:44:40;;;;;;;10.87;4.67;;;;;;;;;;5004757;28;20245;-48
2021/03/14 08:47:05;;;;;;;9.20;3.50;;;;;;;;;;4999643;28;20199;-47
2021/03/14 08:49:31;;;;;;;9.50;3.07;;;;;;;;;;5005941;28;20237;-50
2021/03/14 08:51:57;;;;;;;7.40;3.23;;;;;;;;;;4986058;28;20218;-48
2021/03/14 08:54:34;;;;;;;9.50;3.90;;;;;;;;;;4998765;28;20290;-49
2021/03/14 08:57:02;;;;;;;10.73;3.90;;;;;;;;;;5004074;28;20556;-49
2021/03/14 08:59:28;;;;;;;5.50;3.00;;;;;;;;;;5001033;28;20184;-48
2021/03/14 09:01:56;;;;;;;6.40;3.33;;;;;;;;;;5004769;28;20218;-48
2021/03/14 09:04:25;;;;;;;6.20;3.17;;;;;;;;;;5004820;28;20218;-48
2021/03/14 09:06:51;;;;;;;10.27;3.97;;;;;;;;;;5001291;28;20184;-47
2021/03/14 09:09:21;;;;;;;6.67;3.63;;;;;;;;;;4988993;28;20190;-48
2021/03/14 09:11:54;;;;;;;7.40;3.43;;;;;;;;;;5004777;28;20214;-48
2021/03/14 09:14:27;;;;;;;8.27;3.27;;;;;;;;;;5003804;28;20207;-49
2021/03/14 09:16:56;;;;;;;9.40;4.10;;;;;;;;;;5001380;28;20191;-47
2021/03/14 09:19:25;;;;;;;7.30;3.33;;;;;;;;;;5004885;28;20219;-47
2021/03/14 09:21:55;;;;;;;9.50;3.13;;;;;;;;;;5007673;28;20587;-47
2021/03/14 09:24:29;;;;;;;6.17;3.60;;;;;;;;;;5004501;28;20219;-47
2021/03/14 09:27:01;;;;;;;12.93;4.20;;;;;;;;;;5003934;28;20187;-49
2021/03/14 09:29:38;;;;;;;6.40;3.23;;;;;;;;;;5001045;28;20246;-48
2021/03/14 09:32:14;;;;;;;8.03;3.67;;;;;;;;;;5005879;28;20597;-49
2021/03/14 09:34:39;;;;;;;9.87;3.73;;;;;;;;;;4988866;28;20277;-48
2021/03/14 09:37:04;;;;;;;5.90;3.73;;;;;;;;;;5003124;28;20209;-47
2021/03/14 09:39:30;;;;;;;5.90;3.80;;;;;;;;;;5004554;28;20199;-47
2021/03/14 09:41:55;;;;;;;5.03;3.20;;;;;;;;;;5003213;28;20199;-49
2021/03/14 09:44:20;;;;;;;6.50;3.10;;;;;;;;;;5004651;28;20222;-50
2021/03/14 09:46:56;;;;;;;5.10;3.30;;;;;;;;;;5002708;28;20246;-49
2021/03/14 09:49:22;;;;;;;6.93;3.00;;;;;;;;;;4985788;28;20285;-48
2021/03/14 09:51:57;;;;;;;5.40;2.90;;;;;;;;;;5001995;28;20278;-48
2021/03/14 09:54:26;;;;;;;8.47;3.80;;;;;;;;;;5007850;28;20198;-48
2021/03/14 09:56:55;;;;;;;6.13;2.60;;;;;;;;;;5005467;28;20647;-48
2021/03/14 09:59:25;;;;;;;4.50;2.57;;;;;;;;;;5002728;28;20851;-47
2021/03/14 10:01:51;;;;;;;5.33;2.47;;;;;;;;;;5002877;28;20223;-47
2021/03/14 10:04:18;;;;;;;6.47;3.00;;;;;;;;;;5006743;28;20715;-48
2021/03/14 10:06:43;;;;;;;6.63;3.30;;;;;;;;;;4999840;28;20187;-48
2021/03/14 10:09:26;;;;;;;6.03;2.77;;;;;;;;;;5004644;28;20809;-48
2021/03/14 10:11:53;;;;;;;7.17;2.67;;;;;;;;;;5003645;28;20759;-49
2021/03/14 10:14:20;;;;;;;5.57;2.70;;;;;;;;;;5004541;28;20682;-49
2021/03/14 10:16:47;;;;;;;7.10;2.90;;;;;;;;;;5006846;28;20202;-48
2021/03/14 10:19:14;;;;;;;5.83;2.60;;;;;;;;;;4999220;28;20230;-48
2021/03/14 10:21:45;;;;;;;9.30;2.77;;;;;;;;;;5002438;28;20198;-48
2021/03/14 10:24:25;;;;;;;6.93;2.83;;;;;;;;;;4987603;28;20199;-48
2021/03/14 10:26:57;;;;;;;6.83;2.73;;;;;;;;;;4979581;28;20188;-48
2021/03/14 10:29:32;;;;;;;6.07;2.83;;;;;;;;;;4984050;28;20194;-48
2021/03/14 10:31:58;;;;;;;4.27;2.00;;;;;;;;;;4999475;28;20195;-47
2021/03/14 10:34:24;;;;;;;3.03;1.80;;;;;;;;;;5003506;28;20700;-48
2021/03/14 10:36:53;;;;;;;4.37;2.17;;;;;;;;;;5004285;28;20195;-48
2021/03/14 10:39:25;;;;;;;4.47;2.80;;;;;;;;;;4987304;28;20639;-47
2021/03/14 10:41:51;;;;;;;5.67;2.47;;;;;;;;;;5003036;28;20191;-48
2021/03/14 10:44:24;;;;;;;6.13;2.30;;;;;;;;;;5005234;28;20941;-46
2021/03/14 10:46:55;;;;;;;5.23;2.40;;;;;;;;;;5005511;28;20246;-47
2021/03/14 10:49:23;;;;;;;6.03;2.70;;;;;;;;;;5001355;28;20217;-47
2021/03/14 10:51:50;;;;;;;8.13;2.50;;;;;;;;;;5003231;28;20237;-47
2021/03/14 10:54:17;;;;;;;5.20;2.50;;;;;;;;;;5003984;28;20265;-48
2021/03/14 10:56:47;;;;;;;5.67;2.33;;;;;;;;;;5002807;28;20195;-48
2021/03/14 10:59:32;;;;;;;5.87;2.13;;;;;;;;;;5002295;28;20219;-47
2021/03/14 11:02:24;;;;;;;5.00;2.60;;;;;;;;;;5004539;28;20196;-48
2021/03/14 11:04:54;;;;;;;4.57;2.13;;;;;;;;;;4995236;28;20302;-49
2021/03/14 11:07:34;;;;;;;3.53;1.90;;;;;;;;;;5004085;28;20183;-48
2021/03/14 11:10:08;;;;;;;7.23;2.73;;;;;;;;;;5006914;28;20226;-48
2021/03/14 11:12:35;;;;;;;5.97;2.10;;;;;;;;;;5000238;28;20755;-48
2021/03/14 11:15:01;;;;;;;5.63;2.30;;;;;;;;;;5004018;28;21637;-48
2021/03/14 11:17:31;;;;;;;4.43;1.90;;;;;;;;;;5010407;28;20262;-48
2021/03/14 11:19:57;;;;;;;5.57;2.43;;;;;;;;;;5005011;28;20191;-48
2021/03/14 11:22:23;;;;;;;5.40;2.03;;;;;;;;;;4983497;28;20183;-48
2021/03/14 11:24:49;;;;;;;4.10;1.90;;;;;;;;;;5004917;28;20219;-48
2021/03/14 11:27:15;;;;;;;6.17;2.37;;;;;;;;;;5002730;28;20207;-48
2021/03/14 11:29:41;;;;;;;4.60;1.80;;;;;;;;;;5003874;28;20198;-48
2021/03/14 11:32:11;;;;;;;5.33;2.10;;;;;;;;;;5004048;28;20721;-48
2021/03/14 11:34:37;;;;;;;3.27;1.70;;;;;;;;;;5005602;28;20238;-48
2021/03/14 11:37:03;;;;;;;3.80;1.90;;;;;;;;;;4992046;28;20629;-48
2021/03/14 11:39:28;;;;;;;3.57;2.17;;;;;;;;;;5006882;28;20192;-47
2021/03/14 11:41:54;;;;;;;3.77;2.17;;;;;;;;;;5008784;28;20202;-49
2021/03/14 11:44:19;;;;;;;4.00;2.00;;;;;;;;;;5005677;28;20577;-48
2021/03/14 11:46:47;;;;;;;3.90;2.00;;;;;;;;;;5004800;28;20203;-48
2021/03/14 11:49:13;;;;;;;3.55;2.00;;;;;;;;;;5007047;28;20183;-48
2021/03/14 11:51:38;;;;;;;7.93;2.05;;;;;;;;;;5009234;28;20203;-48
2021/03/14 11:54:04;;;;;;;5.95;1.90;;;;;;;;;;5009284;28;20578;-48
2021/03/14 11:56:30;;;;;;;4.93;2.00;;;;;;;;;;5005300;28;20246;-47
2021/03/14 11:58:58;;;;;;;6.75;2.38;;;;;;;;;;5005761;28;20693;-48
2021/03/14 12:01:27;;;;;;;5.43;1.92;;;;;;;;;;5007978;28;20203;-48
2021/03/14 12:03:53;;;;;;;4.93;2.10;;;;;;;;;;5008195;28;20419;-48
2021/03/14 12:06:20;;;;;;;5.05;2.13;;;;;;;;;;4997442;28;20206;-48
2021/03/14 12:08:45;;;;;;;4.53;1.95;;;;;;;;;;4990679;28;21933;-48
2021/03/14 12:11:11;;;;;;;5.82;2.28;;;;;;;;;;5008388;28;20233;-48
2021/03/14 12:13:36;;;;;;;5.50;2.33;;;;;;;;;;5006359;28;20209;-48
2021/03/14 12:16:03;;;;;;;4.20;2.00;;;;;;;;;;5005959;28;20313;-48
2021/03/14 12:18:29;;;;;;;4.53;2.38;;;;;;;;;;5001570;28;20207;-48
2021/03/14 12:20:55;;;;;;;3.72;2.20;;;;;;;;;;5008985;28;20803;-48
2021/03/14 12:23:21;;;;;;;2.60;1.88;;;;;;;;;;5005436;28;20222;-46
2021/03/14 12:25:46;;;;;;;3.25;1.85;;;;;;;;;;4998714;28;20254;-48
2021/03/14 12:28:12;;;;;;;3.23;1.90;;;;;;;;;;4987010;28;20249;-48
2021/03/14 12:30:37;;;;;;;3.53;2.00;;;;;;;;;;4998936;28;20191;-48
2021/03/14 12:33:03;;;;;;;3.50;1.50;;;;;;;;;;4999951;28;20683;-49
2021/03/14 12:35:28;;;;;;;4.40;2.00;;;;;;;;;;5005985;28;20206;-48
2021/03/14 12:37:53;;;;;;;5.33;2.10;;;;;;;;;;5006159;28;20219;-49
2021/03/14 12:40:22;;;;;;;3.70;2.03;;;;;;;;;;5004528;28;20230;-48
2021/03/14 12:42:47;;;;;;;4.23;2.13;;;;;;;;;;5003043;28;20188;-48
2021/03/14 12:45:13;;;;;;;4.27;1.60;;;;;;;;;;5002345;28;20656;-49
2021/03/14 12:47:39;;;;;;;5.70;2.33;;;;;;;;;;4989598;28;20215;-48
2021/03/14 12:50:07;;;;;;;4.50;1.90;;;;;;;;;;5001067;28;20215;-48
2021/03/14 12:52:33;;;;;;;3.50;1.90;;;;;;;;;;5002580;28;20218;-48
2021/03/14 12:54:58;;;;;;;3.70;1.90;;;;;;;;;;5004873;28;20199;-50
2021/03/14 12:57:24;;;;;;;3.20;1.73;;;;;;;;;;5003868;28;20277;-48
2021/03/14 12:59:49;;;;;;;2.70;1.97;;;;;;;;;;5000979;28;20775;-49
2021/03/14 13:02:14;;;;;;;3.00;1.80;;;;;;;;;;5003179;28;20282;-47
2021/03/14 13:04:39;;;;;;;2.87;1.90;;;;;;;;;;4996694;28;20253;-49
2021/03/14 13:07:05;;;;;;;3.77;1.87;;;;;;;;;;4997021;28;20204;-49
2021/03/14 13:09:30;;;;;;;3.23;1.80;;;;;;;;;;5002387;28;20196;-48
2021/03/14 13:11:57;;;;;;;2.90;1.63;;;;;;;;;;5004224;28;20702;-47
2021/03/14 13:14:23;;;;;;;4.20;1.63;;;;;;;;;;5003265;28;20214;-48
2021/03/14 13:16:48;;;;;;;2.53;1.70;;;;;;;;;;5005159;28;20763;-48
2021/03/14 13:19:14;;;;;;;3.23;1.80;;;;;;;;;;5004938;28;20211;-48
2021/03/14 13:21:39;;;;;;;3.40;1.87;;;;;;;;;;5005250;28;20199;-48
2021/03/14 13:24:05;;;;;;;3.77;2.10;;;;;;;;;;5007204;28;20203;-47
2021/03/14 13:26:30;;;;;;;3.90;1.80;;;;;;;;;;5000804;28;20791;-50
2021/03/14 13:28:55;;;;;;;3.47;2.00;;;;;;;;;;5002810;28;20295;-47
2021/03/14 13:31:22;;;;;;;4.33;2.13;;;;;;;;;;5000875;28;20728;-48
2021/03/14 13:33:47;;;;;;;3.87;1.73;;;;;;;;;;5001102;28;20194;-48
2021/03/14 13:36:13;;;;;;;2.67;1.70;;;;;;;;;;5002704;28;20641;-48
2021/03/14 13:38:38;;;;;;;4.67;1.67;;;;;;;;;;4998477;28;20207;-49
2021/03/14 13:41:04;;;;;;;4.40;2.00;;;;;;;;;;5005000;28;20211;-48
2021/03/14 13:43:29;;;;;;;6.37;2.20;;;;;;;;;;4986360;28;20557;-48
2021/03/14 13:45:54;;;;;;;6.07;2.50;;;;;;;;;;5001107;28;20219;-51
2021/03/14 13:48:19;;;;;;;5.37;2.13;;;;;;;;;;4999613;28;20211;-48
2021/03/14 13:50:45;;;;;;;3.77;2.17;;;;;;;;;;5000542;28;20559;-48
2021/03/14 13:53:10;;;;;;;5.77;2.40;;;;;;;;;;5000230;28;20614;-49
2021/03/14 13:55:36;;;;;;;4.40;2.27;;;;;;;;;;5004644;28;20222;-47
2021/03/14 13:58:01;;;;;;;5.00;2.10;;;;;;;;;;5001166;28;20203;-47
2021/03/14 14:00:26;;;;;;;3.00;1.87;;;;;;;;;;5000513;28;20246;-48
2021/03/14 14:02:52;;;;;;;5.30;2.00;;;;;;;;;;5001279;28;20195;-47
2021/03/14 14:05:17;;;;;;;4.57;2.63;;;;;;;;;;4999800;28;20707;-51
2021/03/14 14:07:43;;;;;;;3.97;2.73;;;;;;;;;;5003192;28;20183;-50
2021/03/14 14:10:12;;;;;;;4.73;2.67;;;;;;;;;;5019549;28;20279;-48
2021/03/14 14:12:40;;;;;;;4.00;2.37;;;;;;;;;;5018536;28;20195;-50
2021/03/14 14:15:05;;;;;;;2.83;2.20;;;;;;;;;;5015700;28;20242;-49
2021/03/14 14:17:31;;;;;;;5.73;2.80;;;;;;;;;;5012971;28;20219;-48
2021/03/14 14:19:56;;;;;;;3.43;2.20;;;;;;;;;;5020011;28;20214;-49
2021/03/14 14:22:21;;;;;;;5.50;2.50;;;;;;;;;;5018421;28;20290;-49
2021/03/14 14:24:47;;;;;;;2.53;1.93;;;;;;;;;;5017233;28;20226;-50
2021/03/14 14:27:12;;;;;;;4.57;2.17;;;;;;;;;;5015673;28;20568;-48
2021/03/14 14:29:37;;;;;;;4.10;2.07;;;;;;;;;;5016296;28;20226;-49
2021/03/14 14:32:04;;;;;;;5.63;2.30;;;;;;;;;;5017679;28;20406;-48
2021/03/14 14:34:30;;;;;;;3.43;2.10;;;;;;;;;;5017440;28;20359;-48
2021/03/14 14:36:55;;;;;;;2.60;2.17;;;;;;;;;;5021037;28;20199;-49
2021/03/14 14:39:20;;;;;;;4.40;2.50;;;;;;;;;;5021702;28;21018;-48
2021/03/14 14:41:48;;;;;;;5.63;2.60;;;;;;;;;;5018548;28;20199;-49
2021/03/14 14:44:14;;;;;;;3.77;2.63;;;;;;;;;;5020907;28;20223;-54
2021/03/14 14:46:41;;;;;;;2.20;1.80;;;;;;;;;;5022909;28;20252;-48
2021/03/14 14:49:06;;;;;;;3.83;2.33;;;;;;;;;;5025061;28;20691;-49